Time;durP1;ratioP1;P1;durP2;ratioP2;P2;SDS_P1;SDS_P2;PMS_P1;PMS_P2;Temp;Humidity;BMP_temperature;BMP_pressure;BME280_temperature;BME280_humidity;BME280_pressure;Samples;Min_cycle;Max_cycle;Signal;HPM_P1;HPM_P2
2024/02/16 00:01:02;;;;;;;17.27;8.20;;;24.90;43.40;;;;;;5070801;28;20115;-57
2024/02/16 00:03:29;;;;;;;19.52;7.70;;;24.70;43.40;;;;;;5074320;28;20524;-57
2024/02/16 00:05:55;;;;;;;24.50;8.57;;;24.60;43.50;;;;;;5069713;28;20069;-57
2024/02/16 00:08:22;;;;;;;24.85;8.75;;;24.50;43.50;;;;;;5072462;28;20118;-60
2024/02/16 00:10:49;;;;;;;26.45;8.23;;;24.60;43.90;;;;;;5058719;28;20545;-61
2024/02/16 00:13:15;;;;;;;19.40;8.05;;;24.40;44.20;;;;;;5066299;28;20147;-57
2024/02/16 00:15:42;;;;;;;18.60;7.75;;;24.50;43.90;;;;;;5061527;28;20104;-55
2024/02/16 00:18:08;;;;;;;17.25;7.20;;;24.50;43.40;;;;;;5065279;28;20432;-58
2024/02/16 00:20:35;;;;;;;18.63;7.30;;;24.50;43.90;;;;;;5071507;28;20162;-58
2024/02/16 00:23:01;;;;;;;22.73;7.85;;;24.50;42.70;;;;;;5069502;28;20724;-56
2024/02/16 00:25:28;;;;;;;18.98;7.82;;;24.40;43.40;;;;;;5061656;28;20080;-56
2024/02/16 00:27:54;;;;;;;29.13;7.68;;;24.20;43.70;;;;;;5064784;28;20091;-56
2024/02/16 00:30:22;;;;;;;20.38;7.25;;;24.20;44.10;;;;;;5067509;28;20073;-57
2024/02/16 00:32:48;;;;;;;22.02;7.15;;;24.20;43.90;;;;;;5071242;28;20073;-57
2024/02/16 00:35:19;;;;;;;26.40;6.20;;;24.20;43.30;;;;;;5066895;28;20088;-60
2024/02/16 00:37:45;;;;;;;21.02;6.20;;;24.10;43.90;;;;;;5073919;28;20069;-56
2024/02/16 00:40:12;;;;;;;32.60;6.60;;;24.10;45.30;;;;;;5073615;28;20490;-60
2024/02/16 00:42:39;;;;;;;26.88;7.03;;;24.30;44.50;;;;;;5065594;28;20073;-58
2024/02/16 00:45:06;;;;;;;36.33;6.63;;;24.60;43.70;;;;;;5073899;28;20065;-58
2024/02/16 00:47:33;;;;;;;20.38;6.57;;;24.90;43.10;;;;;;5071757;28;20534;-59
2024/02/16 00:49:59;;;;;;;18.52;6.68;;;25.00;42.90;;;;;;5070266;28;20096;-56
2024/02/16 00:52:26;;;;;;;22.77;6.97;;;24.60;42.90;;;;;;5070374;28;20111;-56
2024/02/16 00:54:53;;;;;;;19.52;6.88;;;24.00;43.70;;;;;;5069786;28;20096;-58
2024/02/16 00:57:19;;;;;;;23.17;6.25;;;23.70;44.30;;;;;;5051261;28;20516;-59
2024/02/16 00:59:46;;;;;;;24.08;6.60;;;23.50;45.50;;;;;;5061994;28;20116;-59
2024/02/16 01:02:12;;;;;;;24.33;6.05;;;23.30;45.20;;;;;;5073208;28;20559;-57
2024/02/16 01:04:39;;;;;;;27.63;7.30;;;23.10;44.90;;;;;;5073506;28;20072;-60
2024/02/16 01:07:05;;;;;;;21.60;6.18;;;23.00;45.30;;;;;;5069648;28;20184;-59
2024/02/16 01:09:31;;;;;;;22.50;6.72;;;22.80;46.00;;;;;;5064621;28;20076;-58
2024/02/16 01:11:58;;;;;;;32.47;6.93;;;22.60;45.80;;;;;;5069131;28;20150;-57
2024/02/16 01:14:25;;;;;;;30.15;7.45;;;22.50;46.10;;;;;;5067159;28;20115;-58
2024/02/16 01:16:51;;;;;;;29.08;6.53;;;22.40;46.60;;;;;;5066165;28;20076;-60
2024/02/16 01:19:18;;;;;;;20.90;6.40;;;22.20;47.50;;;;;;5068092;28;20097;-59
2024/02/16 01:21:47;;;;;;;25.88;9.50;;;22.00;48.30;;;;;;5067291;28;20510;-59
2024/02/16 01:24:14;;;;;;;35.00;10.10;;;21.70;48.00;;;;;;5067221;28;20072;-59
2024/02/16 01:26:41;;;;;;;21.88;8.20;;;21.50;48.90;;;;;;5061512;28;20175;-57
2024/02/16 01:29:07;;;;;;;26.02;7.88;;;21.30;49.30;;;;;;5049527;28;20852;-58
2024/02/16 01:31:36;;;;;;;28.63;6.82;;;21.20;49.80;;;;;;5065179;28;20076;-59
2024/02/16 01:34:02;;;;;;;25.73;7.03;;;20.90;49.30;;;;;;5069694;28;20069;-57
2024/02/16 01:36:29;;;;;;;28.23;7.00;;;20.70;50.00;;;;;;5070138;28;20075;-57
2024/02/16 01:38:55;;;;;;;19.27;6.43;;;20.60;50.70;;;;;;5067402;28;20072;-57
2024/02/16 01:41:22;;;;;;;29.90;7.50;;;20.50;51.10;;;;;;5069470;28;20093;-55
2024/02/16 01:43:48;;;;;;;30.25;6.97;;;20.40;51.60;;;;;;5066688;28;20168;-58
2024/02/16 01:46:15;;;;;;;24.40;7.80;;;20.30;52.00;;;;;;5070622;28;20072;-58
2024/02/16 01:48:41;;;;;;;28.52;7.53;;;20.20;52.20;;;;;;5061715;28;20073;-57
2024/02/16 01:51:09;;;;;;;28.02;8.18;;;20.00;52.40;;;;;;5067135;28;20073;-58
2024/02/16 01:53:37;;;;;;;38.67;8.65;;;19.90;52.80;;;;;;5069066;28;20143;-58
2024/02/16 01:56:04;;;;;;;38.17;8.90;;;19.80;53.40;;;;;;5068612;28;20075;-58
2024/02/16 01:58:31;;;;;;;22.27;8.05;;;19.70;54.70;;;;;;5064811;28;20069;-58
2024/02/16 02:00:57;;;;;;;38.33;10.10;;;19.60;54.70;;;;;;5063793;28;20104;-56
2024/02/16 02:03:24;;;;;;;36.05;9.35;;;19.40;54.40;;;;;;5067781;28;20068;-57
2024/02/16 02:05:51;;;;;;;33.95;9.43;;;19.30;55.10;;;;;;5068074;28;20144;-59
2024/02/16 02:08:17;;;;;;;24.58;8.90;;;19.30;55.30;;;;;;5068059;28;20077;-57
2024/02/16 02:10:44;;;;;;;41.42;10.25;;;19.30;56.00;;;;;;5064901;28;20083;-58
2024/02/16 02:13:10;;;;;;;31.38;9.18;;;19.10;56.00;;;;;;5066492;28;20175;-59
2024/02/16 02:15:37;;;;;;;52.97;10.02;;;19.00;55.60;;;;;;5059239;28;20076;-58
2024/02/16 02:18:04;;;;;;;67.43;12.32;;;19.00;55.20;;;;;;5066446;28;20211;-57
2024/02/16 02:20:30;;;;;;;81.55;12.07;;;18.90;55.10;;;;;;5066687;28;20096;-59
2024/02/16 02:22:57;;;;;;;69.97;11.35;;;18.90;55.30;;;;;;5065437;28;21696;-58
2024/02/16 02:25:23;;;;;;;65.78;11.13;;;18.80;55.50;;;;;;5069690;28;20159;-59
2024/02/16 02:27:51;;;;;;;81.78;13.60;;;18.70;56.00;;;;;;5068958;28;20077;-58
2024/02/16 02:30:17;;;;;;;83.85;14.52;;;18.70;55.90;;;;;;5059029;28;20070;-58
2024/02/16 02:32:44;;;;;;;56.25;13.68;;;18.70;56.00;;;;;;5068516;28;20572;-58
2024/02/16 02:35:11;;;;;;;53.95;12.63;;;18.60;56.30;;;;;;5067177;28;20166;-58
2024/02/16 02:37:38;;;;;;;67.00;13.68;;;18.60;56.40;;;;;;5061401;28;20099;-59
2024/02/16 02:40:08;;;;;;;56.53;11.75;;;18.60;56.70;;;;;;5071753;28;20097;-58
2024/02/16 02:42:35;;;;;;;53.13;11.50;;;18.60;56.80;;;;;;5069270;28;20080;-59
2024/02/16 02:45:02;;;;;;;67.20;12.27;;;18.50;57.50;;;;;;5071607;28;20088;-58
2024/02/16 02:47:29;;;;;;;50.92;12.23;;;18.50;58.30;;;;;;5071528;28;20145;-61
2024/02/16 02:49:55;;;;;;;64.85;12.13;;;18.40;58.10;;;;;;5071559;28;20061;-58
2024/02/16 02:52:22;;;;;;;58.50;11.90;;;18.30;58.30;;;;;;5068550;28;20076;-58
2024/02/16 02:54:48;;;;;;;61.13;13.07;;;18.30;58.70;;;;;;5071481;28;20182;-59
2024/02/16 02:57:15;;;;;;;87.68;14.75;;;18.20;59.40;;;;;;5067263;28;20081;-57
2024/02/16 02:59:41;;;;;;;79.60;12.93;;;18.10;59.50;;;;;;5052181;28;20129;-59
2024/02/16 03:02:08;;;;;;;73.45;13.43;;;18.10;59.70;;;;;;5051884;28;20069;-58
2024/02/16 03:04:35;;;;;;;79.68;12.77;;;18.00;60.30;;;;;;5059289;28;20164;-58
2024/02/16 03:07:02;;;;;;;94.82;14.60;;;18.00;61.30;;;;;;5068741;28;20069;-58
2024/02/16 03:09:29;;;;;;;81.75;12.27;;;18.00;61.30;;;;;;5070777;28;20101;-56
2024/02/16 03:11:55;;;;;;;80.30;13.52;;;18.00;61.50;;;;;;5071317;28;20084;-57
2024/02/16 03:14:22;;;;;;;78.13;13.57;;;18.00;61.90;;;;;;5051613;28;20074;-59
2024/02/16 03:16:48;;;;;;;76.68;12.73;;;17.90;62.30;;;;;;5051204;28;20224;-57
2024/02/16 03:19:15;;;;;;;83.93;13.32;;;17.90;62.90;;;;;;5049230;28;20436;-58
2024/02/16 03:21:42;;;;;;;78.00;12.73;;;17.90;63.60;;;;;;5054026;28;20142;-57
2024/02/16 03:24:08;;;;;;;65.22;12.68;;;17.80;63.70;;;;;;5069252;28;20081;-58
2024/02/16 03:26:35;;;;;;;119.88;15.38;;;17.80;63.80;;;;;;5067549;28;20077;-58
2024/02/16 03:29:01;;;;;;;97.03;17.15;;;17.60;64.30;;;;;;5048155;28;20081;-58
2024/02/16 03:31:28;;;;;;;72.95;16.10;;;17.50;65.20;;;;;;5051280;28;20532;-58
2024/02/16 03:33:55;;;;;;;98.50;15.95;;;17.50;65.10;;;;;;5061392;28;20104;-58
2024/02/16 03:36:22;;;;;;;90.60;16.70;;;17.50;65.40;;;;;;5067574;28;20519;-57
2024/02/16 03:38:52;;;;;;;107.20;22.25;;;17.60;65.40;;;;;;5066297;28;20072;-60
2024/02/16 03:41:22;;;;;;;93.47;20.45;;;17.60;65.20;;;;;;5066252;28;20537;-58
2024/02/16 03:43:50;;;;;;;110.68;28.25;;;17.50;66.20;;;;;;5066057;28;20477;-56
2024/02/16 03:46:17;;;;;;;92.57;34.92;;;17.40;66.90;;;;;;5077123;28;20091;-58
2024/02/16 03:48:44;;;;;;;126.57;22.25;;;17.30;67.60;;;;;;5075624;28;20515;-57
2024/02/16 03:51:11;;;;;;;125.15;21.05;;;17.20;67.90;;;;;;5068862;28;20115;-57
2024/02/16 03:53:37;;;;;;;89.00;19.60;;;17.20;68.30;;;;;;5066617;28;20120;-57
2024/02/16 03:56:05;;;;;;;148.18;20.80;;;17.10;68.50;;;;;;5081892;28;20073;-59
2024/02/16 03:58:32;;;;;;;112.68;21.55;;;17.00;69.40;;;;;;5069059;28;20112;-57
2024/02/16 04:00:59;;;;;;;114.03;20.23;;;16.90;69.30;;;;;;5069565;28;20112;-57
2024/02/16 04:03:26;;;;;;;105.10;18.52;;;16.80;69.90;;;;;;5070315;28;20069;-57
2024/02/16 04:05:53;;;;;;;85.43;18.38;;;16.80;70.00;;;;;;5067837;28;20588;-57
2024/02/16 04:08:19;;;;;;;99.65;20.08;;;16.80;69.40;;;;;;5063317;28;20188;-57
2024/02/16 04:10:46;;;;;;;105.05;20.40;;;16.80;69.70;;;;;;5064368;28;20543;-57
2024/02/16 04:13:13;;;;;;;89.93;19.52;;;16.80;70.00;;;;;;5054438;28;20105;-57
2024/02/16 04:15:39;;;;;;;120.75;20.88;;;16.80;70.00;;;;;;5052759;28;20078;-58
2024/02/16 04:18:06;;;;;;;105.65;21.05;;;16.80;70.40;;;;;;5051675;28;20084;-57
2024/02/16 04:20:33;;;;;;;126.30;19.30;;;16.70;70.60;;;;;;5055415;28;20097;-57
2024/02/16 04:23:00;;;;;;;111.40;31.33;;;16.70;71.50;;;;;;5060828;28;20520;-58
2024/02/16 04:25:26;;;;;;;111.55;31.92;;;16.60;71.30;;;;;;5056599;28;20069;-57
2024/02/16 04:27:53;;;;;;;150.32;34.72;;;16.50;71.30;;;;;;5051432;28;20093;-58
2024/02/16 04:30:20;;;;;;;90.40;17.25;;;16.50;71.80;;;;;;5063585;28;20069;-58
2024/02/16 04:32:46;;;;;;;107.43;19.63;;;16.50;72.20;;;;;;5054997;28;20097;-57
2024/02/16 04:35:14;;;;;;;96.82;18.13;;;16.40;72.70;;;;;;5054837;28;20069;-59
2024/02/16 04:37:40;;;;;;;96.45;18.88;;;16.40;73.50;;;;;;5060531;28;20153;-58
2024/02/16 04:40:08;;;;;;;100.68;18.63;;;16.30;73.30;;;;;;5071707;28;20557;-57
2024/02/16 04:42:34;;;;;;;95.00;17.58;;;16.30;73.80;;;;;;5071648;28;20069;-58
2024/02/16 04:45:01;;;;;;;95.93;17.83;;;16.20;74.10;;;;;;5056622;28;20231;-57
2024/02/16 04:47:28;;;;;;;99.68;16.40;;;16.20;73.80;;;;;;5053857;28;20505;-58
2024/02/16 04:49:54;;;;;;;80.25;18.58;;;16.20;74.40;;;;;;5051936;28;20351;-58
2024/02/16 04:52:22;;;;;;;102.65;17.25;;;16.20;73.80;;;;;;5051252;28;20584;-57
2024/02/16 04:54:48;;;;;;;96.30;17.35;;;16.20;73.90;;;;;;5063639;28;20191;-58
2024/02/16 04:57:14;;;;;;;85.30;16.88;;;16.10;74.60;;;;;;5052351;28;20077;-57
2024/02/16 04:59:41;;;;;;;87.78;17.63;;;16.00;75.20;;;;;;5050250;28;20101;-57
2024/02/16 05:02:07;;;;;;;94.22;17.10;;;16.00;76.10;;;;;;5052159;28;21857;-57
2024/02/16 05:04:34;;;;;;;107.63;17.02;;;16.00;75.60;;;;;;5051835;28;20062;-57
2024/02/16 05:07:00;;;;;;;85.30;16.70;;;15.90;75.50;;;;;;5068627;28;20142;-58
2024/02/16 05:09:27;;;;;;;115.60;15.98;;;16.00;76.20;;;;;;5071204;28;20108;-57
2024/02/16 05:11:53;;;;;;;109.97;17.55;;;15.80;76.40;;;;;;5066672;28;20089;-58
2024/02/16 05:14:20;;;;;;;100.90;17.17;;;15.80;77.00;;;;;;5068629;28;20154;-58
2024/02/16 05:16:47;;;;;;;83.07;15.35;;;15.70;77.60;;;;;;5065914;28;20080;-57
2024/02/16 05:19:14;;;;;;;97.97;15.90;;;15.70;77.90;;;;;;5073152;28;20112;-57
2024/02/16 05:21:40;;;;;;;83.30;15.82;;;15.70;77.60;;;;;;5070604;28;20498;-58
2024/02/16 05:24:07;;;;;;;74.80;15.60;;;15.70;77.30;;;;;;5073110;28;20072;-58
2024/02/16 05:26:34;;;;;;;79.90;16.40;;;15.70;77.60;;;;;;5072760;28;20072;-57
2024/02/16 05:29:00;;;;;;;93.43;17.95;;;15.70;78.10;;;;;;5071154;28;20163;-57
2024/02/16 05:31:26;;;;;;;100.32;16.58;;;15.60;78.30;;;;;;5066025;28;20148;-57
2024/02/16 05:33:53;;;;;;;97.65;16.77;;;15.50;78.70;;;;;;5051258;28;20081;-57
2024/02/16 05:36:21;;;;;;;117.40;19.33;;;15.50;78.50;;;;;;5064520;28;20558;-57
2024/02/16 05:38:48;;;;;;;101.80;18.55;;;15.40;80.00;;;;;;5072455;28;20516;-58
2024/02/16 05:41:15;;;;;;;85.00;17.38;;;15.30;80.50;;;;;;5070323;28;20227;-58
2024/02/16 05:43:44;;;;;;;113.65;19.85;;;15.30;80.50;;;;;;5068477;28;20100;-62
2024/02/16 05:46:16;;;;;;;106.60;19.08;;;15.30;80.60;;;;;;5072337;28;20106;-58
2024/02/16 05:48:44;;;;;;;81.45;17.33;;;15.30;80.70;;;;;;5072400;28;20492;-57
2024/02/16 05:51:12;;;;;;;86.88;17.48;;;15.30;81.40;;;;;;5072475;28;20120;-57
2024/02/16 05:53:40;;;;;;;105.43;20.13;;;15.30;81.40;;;;;;5058291;28;20113;-58
2024/02/16 05:56:07;;;;;;;107.40;21.02;;;15.20;83.60;;;;;;5052548;28;20429;-59
2024/02/16 05:58:34;;;;;;;107.50;21.23;;;15.10;83.60;;;;;;5062235;28;20095;-57
2024/02/16 06:01:01;;;;;;;99.93;19.33;;;15.10;83.60;;;;;;5072318;28;20425;-58
2024/02/16 06:03:27;;;;;;;122.70;22.50;;;15.00;83.70;;;;;;5070266;28;20080;-58
2024/02/16 06:05:54;;;;;;;126.53;23.30;;;15.00;84.40;;;;;;5051332;28;20077;-58
2024/02/16 06:08:20;;;;;;;122.43;24.08;;;15.00;84.60;;;;;;5059899;28;20069;-58
2024/02/16 06:10:51;;;;;;;130.52;23.73;;;14.90;85.40;;;;;;5069747;28;20068;-56
2024/02/16 06:13:19;;;;;;;91.32;21.27;;;14.90;86.00;;;;;;5072309;28;20069;-59
2024/02/16 06:15:47;;;;;;;93.55;20.30;;;14.90;85.50;;;;;;5058891;28;20100;-58
2024/02/16 06:18:13;;;;;;;101.97;22.38;;;14.90;85.30;;;;;;5055294;28;20069;-57
2024/02/16 06:20:41;;;;;;;101.63;24.67;;;14.90;84.60;;;;;;5064691;28;20111;-59
2024/02/16 06:23:08;;;;;;;117.65;25.42;;;14.90;84.50;;;;;;5067068;28;20081;-58
2024/02/16 06:25:35;;;;;;;113.63;23.83;;;14.90;84.90;;;;;;5055150;28;20119;-58
2024/02/16 06:28:02;;;;;;;77.90;24.10;;;14.90;85.10;;;;;;5052054;28;20156;-58
2024/02/16 06:30:29;;;;;;;94.03;23.42;;;14.80;85.00;;;;;;5052112;28;20172;-59
2024/02/16 06:32:55;;;;;;;80.20;21.73;;;14.80;87.10;;;;;;5064084;28;20134;-58
2024/02/16 06:35:22;;;;;;;82.43;22.25;;;14.80;86.70;;;;;;5065447;28;20475;-58
2024/02/16 06:37:48;;;;;;;95.07;23.67;;;14.80;86.20;;;;;;5049612;28;20066;-59
2024/02/16 06:40:15;;;;;;;65.10;19.73;;;14.80;87.50;;;;;;5050390;28;20540;-58
2024/02/16 06:42:42;;;;;;;94.55;19.63;;;14.80;86.70;;;;;;5052061;28;20065;-59
2024/02/16 06:45:09;;;;;;;65.57;17.30;;;14.70;86.80;;;;;;5051323;28;20076;-58
2024/02/16 06:47:35;;;;;;;56.80;18.30;;;14.80;86.80;;;;;;5059281;28;20160;-59
2024/02/16 06:50:02;;;;;;;70.60;17.52;;;14.80;86.80;;;;;;5058181;28;20073;-58
2024/02/16 06:52:28;;;;;;;46.20;17.17;;;14.80;87.40;;;;;;5056142;28;20081;-59
2024/02/16 06:54:55;;;;;;;62.17;15.70;;;14.80;87.40;;;;;;5066817;28;20069;-59
2024/02/16 06:57:21;;;;;;;52.53;15.95;;;14.70;88.10;;;;;;5061122;28;20069;-58
2024/02/16 06:59:48;;;;;;;59.03;16.25;;;14.70;89.10;;;;;;5065263;28;20101;-60
2024/02/16 07:02:16;;;;;;;51.83;16.10;;;14.70;89.10;;;;;;5054398;28;20074;-58
2024/02/16 07:04:42;;;;;;;68.00;17.70;;;14.70;89.00;;;;;;5063828;28;20065;-58
2024/02/16 07:07:08;;;;;;;54.42;18.98;;;14.70;89.40;;;;;;5059286;28;20069;-59
2024/02/16 07:09:36;;;;;;;61.28;17.05;;;14.70;89.80;;;;;;5053600;28;20061;-58
2024/02/16 07:12:03;;;;;;;58.95;16.92;;;14.60;90.10;;;;;;5058867;28;20088;-59
2024/02/16 07:14:29;;;;;;;50.92;17.40;;;14.60;90.40;;;;;;5061079;28;20227;-59
2024/02/16 07:16:56;;;;;;;60.63;19.50;;;14.50;91.10;;;;;;5062903;28;20410;-63
2024/02/16 07:19:22;;;;;;;59.00;18.92;;;14.50;91.00;;;;;;5064077;28;20073;-67
2024/02/16 07:21:49;;;;;;;42.60;17.45;;;15.10;91.20;;;;;;5064391;28;20223;-68
2024/02/16 07:24:16;;;;;;;47.83;18.75;;;15.70;90.40;;;;;;5065939;28;20110;-68
2024/02/16 07:26:43;;;;;;;50.80;18.25;;;15.90;89.30;;;;;;5064752;28;20517;-68
2024/02/16 07:29:09;;;;;;;48.38;18.20;;;15.90;87.60;;;;;;5065601;28;20088;-68
2024/02/16 07:31:36;;;;;;;53.85;18.42;;;15.90;87.90;;;;;;5062006;28;20092;-67
2024/02/16 07:34:03;;;;;;;46.83;17.25;;;15.90;88.30;;;;;;5068439;28;20190;-67
2024/02/16 07:36:31;;;;;;;51.83;19.35;;;16.00;88.60;;;;;;5064681;28;20521;-68
2024/02/16 07:38:58;;;;;;;43.95;18.48;;;16.10;88.80;;;;;;5060904;28;20161;-68
2024/02/16 07:41:25;;;;;;;49.08;17.77;;;16.20;88.70;;;;;;5066220;28;20120;-68
2024/02/16 07:43:51;;;;;;;55.55;20.95;;;16.20;88.40;;;;;;5064375;28;20073;-68
2024/02/16 07:46:18;;;;;;;64.90;21.83;;;16.10;87.90;;;;;;5061688;28;20061;-68
2024/02/16 07:48:44;;;;;;;65.00;21.77;;;15.90;89.40;;;;;;5062507;28;20163;-68
2024/02/16 07:51:11;;;;;;;64.25;22.23;;;15.90;90.00;;;;;;5064511;28;20077;-69
2024/02/16 07:53:41;;;;;;;54.92;21.48;;;15.70;89.40;;;;;;5059243;28;20506;-69
2024/02/16 07:56:07;;;;;;;61.22;21.20;;;15.60;90.00;;;;;;5057547;28;20069;-69
2024/02/16 07:58:33;;;;;;;60.78;20.85;;;15.50;90.70;;;;;;5063170;28;20076;-68
2024/02/16 08:01:00;;;;;;;60.88;21.13;;;15.50;90.60;;;;;;5060466;28;20100;-68
2024/02/16 08:03:26;;;;;;;53.80;21.80;;;15.40;90.70;;;;;;5062965;28;20061;-68
2024/02/16 08:05:53;;;;;;;59.13;20.83;;;15.40;90.80;;;;;;5065036;28;20085;-68
2024/02/16 08:08:20;;;;;;;55.75;20.95;;;15.30;90.90;;;;;;5063176;28;20149;-67
2024/02/16 08:10:46;;;;;;;55.15;20.27;;;15.20;91.10;;;;;;5057580;28;20098;-67
2024/02/16 08:13:13;;;;;;;63.63;21.08;;;15.40;90.80;;;;;;5060543;28;20069;-67
2024/02/16 08:15:39;;;;;;;57.70;21.85;;;15.30;91.10;;;;;;5062501;28;20065;-67
2024/02/16 08:18:06;;;;;;;53.72;20.27;;;15.20;91.70;;;;;;5062900;28;20168;-68
2024/02/16 08:20:32;;;;;;;53.08;19.77;;;15.30;91.40;;;;;;5061647;28;20202;-69
2024/02/16 08:22:59;;;;;;;57.45;20.15;;;15.50;91.20;;;;;;5059470;28;20164;-68
2024/02/16 08:25:27;;;;;;;57.25;20.15;;;15.40;91.80;;;;;;5062506;28;20065;-67
2024/02/16 08:27:53;;;;;;;60.13;19.05;;;15.20;92.00;;;;;;5058224;28;21189;-68
2024/02/16 08:30:20;;;;;;;64.15;20.60;;;15.10;92.00;;;;;;5065235;28;20081;-67
2024/02/16 08:32:47;;;;;;;51.88;19.27;;;15.40;91.40;;;;;;5062908;28;20073;-67
2024/02/16 08:35:14;;;;;;;61.25;20.17;;;15.30;91.80;;;;;;5068588;28;20088;-67
2024/02/16 08:37:41;;;;;;;53.75;18.38;;;15.10;92.10;;;;;;5061116;28;20573;-68
2024/02/16 08:40:11;;;;;;;44.20;18.08;;;15.00;92.20;;;;;;5064834;28;20093;-67
2024/02/16 08:42:38;;;;;;;62.10;18.45;;;14.90;92.40;;;;;;5065289;28;20142;-68
2024/02/16 08:45:04;;;;;;;54.95;18.55;;;14.90;92.10;;;;;;5062091;28;20081;-67
2024/02/16 08:47:31;;;;;;;50.30;18.55;;;14.80;92.80;;;;;;5061229;28;20110;-68
2024/02/16 08:49:57;;;;;;;59.05;18.52;;;14.90;92.80;;;;;;5058881;28;20073;-68
2024/02/16 08:52:24;;;;;;;49.15;18.48;;;14.80;92.80;;;;;;5059975;28;20618;-68
2024/02/16 08:54:50;;;;;;;48.45;18.58;;;14.90;92.60;;;;;;5060095;28;20468;-68
2024/02/16 08:57:17;;;;;;;48.25;17.55;;;14.80;93.20;;;;;;5061332;28;20215;-68
2024/02/16 08:59:44;;;;;;;58.47;18.48;;;14.70;93.20;;;;;;5061170;28;20081;-68
2024/02/16 09:02:10;;;;;;;54.28;18.52;;;14.80;93.10;;;;;;5063647;28;20131;-68
2024/02/16 09:04:37;;;;;;;41.20;18.17;;;14.70;93.40;;;;;;5061589;28;20171;-68
2024/02/16 09:07:03;;;;;;;61.08;19.85;;;14.70;93.50;;;;;;5063929;28;20085;-68
2024/02/16 09:09:30;;;;;;;55.38;19.98;;;14.60;93.50;;;;;;5061353;28;20062;-67
2024/02/16 09:11:57;;;;;;;60.85;21.42;;;14.60;93.70;;;;;;5062219;28;20137;-68
2024/02/16 09:14:24;;;;;;;50.88;21.13;;;14.50;93.60;;;;;;5064734;28;20073;-67
2024/02/16 09:16:51;;;;;;;55.33;20.48;;;14.60;93.90;;;;;;5060846;28;20105;-68
2024/02/16 09:19:19;;;;;;;60.00;22.98;;;14.50;94.40;;;;;;5059152;28;20416;-67
2024/02/16 09:21:46;;;;;;;63.60;22.15;;;14.50;94.40;;;;;;5059540;28;20101;-68
2024/02/16 09:24:17;;;;;;;62.92;22.40;;;14.50;94.40;;;;;;5059958;28;20081;-67
2024/02/16 09:26:47;;;;;;;55.20;22.70;;;14.40;94.50;;;;;;5060667;28;20065;-68
2024/02/16 09:29:14;;;;;;;69.05;23.25;;;14.50;94.40;;;;;;5060203;28;20076;-68
2024/02/16 09:31:44;;;;;;;67.95;22.90;;;14.50;94.30;;;;;;5058037;28;20073;-68
2024/02/16 09:34:10;;;;;;;71.20;24.45;;;14.40;94.30;;;;;;5059189;28;20065;-68
2024/02/16 09:36:37;;;;;;;57.70;21.42;;;14.40;94.40;;;;;;5060876;28;20116;-68
2024/02/16 09:39:04;;;;;;;60.92;23.88;;;14.40;94.80;;;;;;5056355;28;20593;-68
2024/02/16 09:41:38;;;;;;;71.05;25.92;;;14.40;95.00;;;;;;5058080;28;20097;-67
2024/02/16 09:44:06;;;;;;;86.15;27.55;;;14.30;95.10;;;;;;5058269;28;20065;-66
2024/02/16 09:46:33;;;;;;;66.30;25.98;;;14.20;94.60;;;;;;5061475;28;20172;-68
2024/02/16 09:49:04;;;;;;;70.63;26.55;;;14.20;94.70;;;;;;5058254;28;20069;-68
2024/02/16 09:51:30;;;;;;;83.55;28.42;;;14.20;94.60;;;;;;5066283;28;20073;-67
2024/02/16 09:53:57;;;;;;;85.07;30.45;;;14.20;94.70;;;;;;5058019;28;20113;-67
2024/02/16 09:56:24;;;;;;;93.03;30.52;;;14.20;94.50;;;;;;5061331;28;20073;-68
2024/02/16 09:58:57;;;;;;;110.72;31.95;;;14.10;94.60;;;;;;5054721;28;20070;-69
2024/02/16 10:01:24;;;;;;;94.53;30.45;;;14.10;95.20;;;;;;5056437;28;20193;-68
2024/02/16 10:03:51;;;;;;;92.25;30.80;;;14.20;95.00;;;;;;5064151;28;20564;-68
2024/02/16 10:06:20;;;;;;;85.78;33.10;;;14.10;95.00;;;;;;5055202;28;20551;-67
2024/02/16 10:08:55;;;;;;;103.20;38.45;;;13.90;95.10;;;;;;5058953;28;20069;-69
2024/02/16 10:11:27;;;;;;;94.63;34.45;;;13.80;95.50;;;;;;5058865;28;20469;-67
2024/02/16 10:14:02;;;;;;;88.57;34.58;;;13.80;95.30;;;;;;5056202;28;20073;-67
2024/02/16 10:16:29;;;;;;;99.72;34.22;;;13.80;95.60;;;;;;5057728;28;20081;-67
2024/02/16 10:18:59;;;;;;;106.28;35.28;;;13.70;95.40;;;;;;5065286;28;20562;-68
2024/02/16 10:21:30;;;;;;;97.75;34.67;;;13.80;95.40;;;;;;5065291;28;20100;-68
2024/02/16 10:24:08;;;;;;;101.15;33.30;;;13.90;95.10;;;;;;5065511;28;20092;-68
2024/02/16 10:26:39;;;;;;;91.70;33.63;;;13.90;95.30;;;;;;5063634;28;20639;-67
2024/02/16 10:29:13;;;;;;;108.00;33.35;;;13.80;95.50;;;;;;5055270;28;20114;-67
2024/02/16 10:31:39;;;;;;;91.53;33.88;;;13.70;95.80;;;;;;5055350;28;20162;-68
2024/02/16 10:34:09;;;;;;;93.55;32.90;;;13.60;95.40;;;;;;5062987;28;20077;-68
2024/02/16 10:36:37;;;;;;;100.88;35.42;;;13.70;95.60;;;;;;5059601;28;20069;-67
2024/02/16 10:39:05;;;;;;;86.72;33.70;;;13.70;95.90;;;;;;5061342;28;20073;-67
2024/02/16 10:41:37;;;;;;;95.68;33.85;;;13.70;95.70;;;;;;5063660;28;20097;-67
2024/02/16 10:44:05;;;;;;;84.85;33.15;;;13.70;95.70;;;;;;5059018;28;20073;-67
2024/02/16 10:46:32;;;;;;;82.03;34.08;;;13.60;96.30;;;;;;5053651;28;20525;-67
2024/02/16 10:48:59;;;;;;;91.38;33.83;;;13.50;96.70;;;;;;5053950;28;20089;-67
2024/02/16 10:51:44;;;;;;;89.90;34.40;;;13.60;96.50;;;;;;5050178;28;20074;-67
2024/02/16 10:54:14;;;;;;;97.07;34.85;;;13.60;96.50;;;;;;5053735;28;20117;-67
2024/02/16 10:56:41;;;;;;;97.95;36.03;;;13.40;96.40;;;;;;5064593;28;20087;-67
2024/02/16 10:59:10;;;;;;;80.80;33.10;;;13.50;96.50;;;;;;5065752;28;20539;-67
2024/02/16 11:01:41;;;;;;;88.03;34.00;;;13.50;96.50;;;;;;5061035;28;20093;-68
2024/02/16 11:04:18;;;;;;;95.50;34.50;;;13.40;96.50;;;;;;5066809;28;20069;-68
2024/02/16 11:06:59;;;;;;;104.10;35.22;;;13.20;97.30;;;;;;5064549;28;20164;-67
2024/02/16 11:09:30;;;;;;;90.43;35.65;;;13.20;97.40;;;;;;5058637;28;20081;-67
2024/02/16 11:12:06;;;;;;;75.97;33.72;;;13.30;97.10;;;;;;5057197;28;20552;-68
2024/02/16 11:14:48;;;;;;;82.13;33.90;;;13.10;97.60;;;;;;5057062;28;20521;-67
2024/02/16 11:17:19;;;;;;;72.90;31.58;;;13.10;97.50;;;;;;5064876;28;20073;-67
2024/02/16 11:19:47;;;;;;;71.47;30.23;;;13.00;97.60;;;;;;5066842;28;20073;-68
2024/02/16 11:22:18;;;;;;;71.63;28.50;;;13.00;97.40;;;;;;5056926;28;20078;-67
2024/02/16 11:24:49;;;;;;;73.57;29.83;;;13.00;97.60;;;;;;5053969;28;20135;-68
2024/02/16 11:27:19;;;;;;;67.40;28.25;;;13.10;97.50;;;;;;5062314;28;20544;-67
2024/02/16 11:29:46;;;;;;;65.25;26.27;;;13.00;97.60;;;;;;5062463;28;20073;-67
2024/02/16 11:32:13;;;;;;;59.88;26.55;;;13.00;97.60;;;;;;5059650;28;20069;-67
2024/02/16 11:34:39;;;;;;;67.22;25.45;;;13.00;97.60;;;;;;5058664;28;20076;-67
2024/02/16 11:37:06;;;;;;;51.20;22.80;;;13.10;98.00;;;;;;5061470;28;20073;-67
2024/02/16 11:39:36;;;;;;;50.42;23.33;;;13.10;98.00;;;;;;5057409;28;20601;-67
2024/02/16 11:42:07;;;;;;;50.92;23.42;;;13.10;97.80;;;;;;5049270;28;21584;-66
2024/02/16 11:44:35;;;;;;;45.92;20.48;;;13.00;98.20;;;;;;5056366;28;20099;-67
2024/02/16 11:47:03;;;;;;;37.97;17.75;;;12.90;98.20;;;;;;5059556;28;20072;-67
2024/02/16 11:49:30;;;;;;;42.75;19.08;;;13.00;98.40;;;;;;5054607;28;20081;-67
2024/02/16 11:52:05;;;;;;;36.75;17.70;;;13.00;98.50;;;;;;5066747;28;20219;-66
2024/02/16 11:54:32;;;;;;;35.88;16.42;;;13.00;98.50;;;;;;5056880;28;20537;-67
2024/02/16 11:56:59;;;;;;;44.05;17.20;;;12.90;98.70;;;;;;5050672;28;20073;-66
2024/02/16 11:59:25;;;;;;;48.65;18.10;;;12.90;98.80;;;;;;5062269;28;20061;-67
2024/02/16 12:01:57;;;;;;;42.08;18.02;;;13.00;98.80;;;;;;5054348;28;20636;-67
2024/02/16 12:04:27;;;;;;;43.92;17.38;;;13.00;98.70;;;;;;5057933;28;20124;-67
2024/02/16 12:06:58;;;;;;;37.75;16.30;;;13.10;98.40;;;;;;5066598;28;20076;-68
2024/02/16 12:09:25;;;;;;;35.72;16.83;;;12.90;98.50;;;;;;5065773;28;20072;-67
2024/02/16 12:11:53;;;;;;;44.80;16.70;;;12.80;98.70;;;;;;5059079;28;20128;-67
2024/02/16 12:14:23;;;;;;;40.15;17.75;;;12.90;99.10;;;;;;5070604;28;20069;-68
2024/02/16 12:16:50;;;;;;;44.88;17.40;;;12.90;99.10;;;;;;5067101;28;20066;-68
2024/02/16 12:19:21;;;;;;;38.65;16.63;;;12.80;99.60;;;;;;5059963;28;20478;-66
2024/02/16 12:21:57;;;;;;;39.90;16.65;;;12.80;99.70;;;;;;5066168;28;20574;-69
2024/02/16 12:24:24;;;;;;;32.35;15.48;;;12.80;99.60;;;;;;5066751;28;20077;-67
2024/02/16 12:26:50;;;;;;;33.65;16.02;;;12.60;99.80;;;;;;5064329;28;20535;-67
2024/02/16 12:29:17;;;;;;;33.20;15.55;;;12.70;99.90;;;;;;5062765;28;20085;-67